<?xml version="1.0" encoding="utf-8"?>
<gpx creator="Wikiloc - https://www.wikiloc.com; modified by GPX Track Cleaner from GPX Viewer plugin (WordPress) " version="1.1" xmlns="http://www.topografix.com/GPX/1/1" xmlns:xsi="http://www.w3.org/2001/XMLSchema-instance" xsi:schemaLocation="http://www.topografix.com/GPX/1/1 http://www.topografix.com/GPX/1/1/gpx.xsd">

	<trk>
		<name>12.Kintoan Barna Eugi-Zubiri BTT OFICIAL</name>
		<cmt> distance: 7.2 km, up: 399 m, down: 529 m</cmt>
		<desc>1 track points, , elevation data replaced</desc>
		<trkseg>
			<trkpt lat="42.977692" lon="-1.506138">
				<ele>657</ele>
				<time>2019-07-08T16:58:40Z</time>
			</trkpt>
			<trkpt lat="42.97767" lon="-1.505986">
				<ele>657</ele>
				<time>2019-07-08T16:59:00Z</time>
			</trkpt>
			<trkpt lat="42.977471" lon="-1.505684">
				<ele>657</ele>
				<time>2019-07-08T16:59:20Z</time>
			</trkpt>
			<trkpt lat="42.977245" lon="-1.505462">
				<ele>657</ele>
				<time>2019-07-08T16:59:40Z</time>
			</trkpt>
			<trkpt lat="42.97711" lon="-1.505359">
				<ele>657</ele>
				<time>2019-07-08T17:00:00Z</time>
			</trkpt>
			<trkpt lat="42.976964" lon="-1.505283">
				<ele>644</ele>
				<time>2019-07-08T17:00:20Z</time>
			</trkpt>
			<trkpt lat="42.976777" lon="-1.50529">
				<ele>644</ele>
				<time>2019-07-08T17:00:40Z</time>
			</trkpt>
			<trkpt lat="42.976603" lon="-1.505365">
				<ele>644</ele>
				<time>2019-07-08T17:01:00Z</time>
			</trkpt>
			<trkpt lat="42.976429" lon="-1.505506">
				<ele>644</ele>
				<time>2019-07-08T17:01:20Z</time>
			</trkpt>
			<trkpt lat="42.976218" lon="-1.505672">
				<ele>644</ele>
				<time>2019-07-08T17:01:40Z</time>
			</trkpt>
			<trkpt lat="42.976046" lon="-1.505807">
				<ele>644</ele>
				<time>2019-07-08T17:02:00Z</time>
			</trkpt>
			<trkpt lat="42.975843" lon="-1.505962">
				<ele>644</ele>
				<time>2019-07-08T17:02:20Z</time>
			</trkpt>
			<trkpt lat="42.97573" lon="-1.506057">
				<ele>644</ele>
				<time>2019-07-08T17:02:40Z</time>
			</trkpt>
			<trkpt lat="42.975593" lon="-1.506161">
				<ele>644</ele>
				<time>2019-07-08T17:03:00Z</time>
			</trkpt>
			<trkpt lat="42.97535" lon="-1.506431">
				<ele>626</ele>
				<time>2019-07-08T17:03:20Z</time>
			</trkpt>
			<trkpt lat="42.975222" lon="-1.506809">
				<ele>626</ele>
				<time>2019-07-08T17:03:40Z</time>
			</trkpt>
			<trkpt lat="42.975189" lon="-1.507153">
				<ele>626</ele>
				<time>2019-07-08T17:04:00Z</time>
			</trkpt>
			<trkpt lat="42.975062" lon="-1.507477">
				<ele>626</ele>
				<time>2019-07-08T17:04:20Z</time>
			</trkpt>
			<trkpt lat="42.974798" lon="-1.507768">
				<ele>666</ele>
				<time>2019-07-08T17:04:40Z</time>
			</trkpt>
			<trkpt lat="42.974478" lon="-1.508123">
				<ele>666</ele>
				<time>2019-07-08T17:05:00Z</time>
			</trkpt>
			<trkpt lat="42.974331" lon="-1.508644">
				<ele>639</ele>
				<time>2019-07-08T17:05:20Z</time>
			</trkpt>
			<trkpt lat="42.974233" lon="-1.509214">
				<ele>639</ele>
				<time>2019-07-08T17:05:40Z</time>
			</trkpt>
			<trkpt lat="42.974166" lon="-1.509436">
				<ele>639</ele>
				<time>2019-07-08T17:06:00Z</time>
			</trkpt>
			<trkpt lat="42.974036" lon="-1.509625">
				<ele>639</ele>
				<time>2019-07-08T17:06:20Z</time>
			</trkpt>
			<trkpt lat="42.973811" lon="-1.509707">
				<ele>639</ele>
				<time>2019-07-08T17:06:40Z</time>
			</trkpt>
			<trkpt lat="42.97354" lon="-1.509779">
				<ele>639</ele>
				<time>2019-07-08T17:07:00Z</time>
			</trkpt>
			<trkpt lat="42.973282" lon="-1.510054">
				<ele>639</ele>
				<time>2019-07-08T17:07:20Z</time>
			</trkpt>
			<trkpt lat="42.973115" lon="-1.51038">
				<ele>639</ele>
				<time>2019-07-08T17:07:40Z</time>
			</trkpt>
			<trkpt lat="42.9729" lon="-1.510781">
				<ele>662</ele>
				<time>2019-07-08T17:08:00Z</time>
			</trkpt>
			<trkpt lat="42.972687" lon="-1.511129">
				<ele>662</ele>
				<time>2019-07-08T17:08:20Z</time>
			</trkpt>
			<trkpt lat="42.972428" lon="-1.511542">
				<ele>662</ele>
				<time>2019-07-08T17:08:40Z</time>
			</trkpt>
			<trkpt lat="42.972125" lon="-1.511839">
				<ele>662</ele>
				<time>2019-07-08T17:09:00Z</time>
			</trkpt>
			<trkpt lat="42.97197" lon="-1.511992">
				<ele>662</ele>
				<time>2019-07-08T17:09:20Z</time>
			</trkpt>
			<trkpt lat="42.971791" lon="-1.512179">
				<ele>662</ele>
				<time>2019-07-08T17:09:40Z</time>
			</trkpt>
			<trkpt lat="42.971558" lon="-1.512429">
				<ele>662</ele>
				<time>2019-07-08T17:10:00Z</time>
			</trkpt>
			<trkpt lat="42.971425" lon="-1.512565">
				<ele>610</ele>
				<time>2019-07-08T17:10:20Z</time>
			</trkpt>
			<trkpt lat="42.971278" lon="-1.512744">
				<ele>610</ele>
				<time>2019-07-08T17:10:40Z</time>
			</trkpt>
			<trkpt lat="42.971135" lon="-1.513026">
				<ele>610</ele>
				<time>2019-07-08T17:11:00Z</time>
			</trkpt>
			<trkpt lat="42.970921" lon="-1.513266">
				<ele>610</ele>
				<time>2019-07-08T17:11:20Z</time>
			</trkpt>
			<trkpt lat="42.97069" lon="-1.513334">
				<ele>622</ele>
				<time>2019-07-08T17:11:40Z</time>
			</trkpt>
			<trkpt lat="42.970293" lon="-1.513272">
				<ele>622</ele>
				<time>2019-07-08T17:12:00Z</time>
			</trkpt>
			<trkpt lat="42.969901" lon="-1.513158">
				<ele>622</ele>
				<time>2019-07-08T17:12:20Z</time>
			</trkpt>
			<trkpt lat="42.969704" lon="-1.513068">
				<ele>622</ele>
				<time>2019-07-08T17:12:40Z</time>
			</trkpt>
			<trkpt lat="42.969445" lon="-1.513">
				<ele>622</ele>
				<time>2019-07-08T17:13:00Z</time>
			</trkpt>
			<trkpt lat="42.969306" lon="-1.513046">
				<ele>622</ele>
				<time>2019-07-08T17:13:20Z</time>
			</trkpt>
			<trkpt lat="42.969214" lon="-1.513168">
				<ele>622</ele>
				<time>2019-07-08T17:13:40Z</time>
			</trkpt>
			<trkpt lat="42.969121" lon="-1.513135">
				<ele>622</ele>
				<time>2019-07-08T17:14:00Z</time>
			</trkpt>
			<trkpt lat="42.969021" lon="-1.513076">
				<ele>622</ele>
				<time>2019-07-08T17:14:20Z</time>
			</trkpt>
			<trkpt lat="42.968859" lon="-1.512972">
				<ele>622</ele>
				<time>2019-07-08T17:14:40Z</time>
			</trkpt>
			<trkpt lat="42.968829" lon="-1.512841">
				<ele>622</ele>
				<time>2019-07-08T17:15:00Z</time>
			</trkpt>
			<trkpt lat="42.968752" lon="-1.512738">
				<ele>622</ele>
				<time>2019-07-08T17:15:20Z</time>
			</trkpt>
			<trkpt lat="42.968599" lon="-1.512601">
				<ele>580</ele>
				<time>2019-07-08T17:15:40Z</time>
			</trkpt>
			<trkpt lat="42.968406" lon="-1.512552">
				<ele>580</ele>
				<time>2019-07-08T17:16:00Z</time>
			</trkpt>
			<trkpt lat="42.968225" lon="-1.512542">
				<ele>580</ele>
				<time>2019-07-08T17:16:20Z</time>
			</trkpt>
			<trkpt lat="42.968142" lon="-1.512535">
				<ele>580</ele>
				<time>2019-07-08T17:16:40Z</time>
			</trkpt>
			<trkpt lat="42.96805" lon="-1.51254">
				<ele>580</ele>
				<time>2019-07-08T17:17:00Z</time>
			</trkpt>
			<trkpt lat="42.967963" lon="-1.512607">
				<ele>580</ele>
				<time>2019-07-08T17:17:20Z</time>
			</trkpt>
			<trkpt lat="42.967875" lon="-1.512652">
				<ele>580</ele>
				<time>2019-07-08T17:17:40Z</time>
			</trkpt>
			<trkpt lat="42.96786" lon="-1.512669">
				<ele>580</ele>
				<time>2019-07-08T17:18:00Z</time>
			</trkpt>
			<trkpt lat="42.967762" lon="-1.512714">
				<ele>580</ele>
				<time>2019-07-08T17:18:20Z</time>
			</trkpt>
			<trkpt lat="42.967679" lon="-1.512726">
				<ele>580</ele>
				<time>2019-07-08T17:18:40Z</time>
			</trkpt>
			<trkpt lat="42.967594" lon="-1.512805">
				<ele>580</ele>
				<time>2019-07-08T17:19:00Z</time>
			</trkpt>
			<trkpt lat="42.967516" lon="-1.512884">
				<ele>580</ele>
				<time>2019-07-08T17:19:20Z</time>
			</trkpt>
			<trkpt lat="42.967425" lon="-1.512891">
				<ele>580</ele>
				<time>2019-07-08T17:19:40Z</time>
			</trkpt>
			<trkpt lat="42.967334" lon="-1.51293">
				<ele>580</ele>
				<time>2019-07-08T17:20:00Z</time>
			</trkpt>
			<trkpt lat="42.967279" lon="-1.513029">
				<ele>580</ele>
				<time>2019-07-08T17:20:20Z</time>
			</trkpt>
			<trkpt lat="42.967216" lon="-1.513117">
				<ele>580</ele>
				<time>2019-07-08T17:20:40Z</time>
			</trkpt>
			<trkpt lat="42.967085" lon="-1.513292">
				<ele>580</ele>
				<time>2019-07-08T17:21:00Z</time>
			</trkpt>
			<trkpt lat="42.966938" lon="-1.513473">
				<ele>580</ele>
				<time>2019-07-08T17:21:20Z</time>
			</trkpt>
			<trkpt lat="42.966805" lon="-1.513643">
				<ele>580</ele>
				<time>2019-07-08T17:21:40Z</time>
			</trkpt>
			<trkpt lat="42.966631" lon="-1.513739">
				<ele>605</ele>
				<time>2019-07-08T17:22:00Z</time>
			</trkpt>
			<trkpt lat="42.966512" lon="-1.513939">
				<ele>605</ele>
				<time>2019-07-08T17:22:20Z</time>
			</trkpt>
			<trkpt lat="42.966342" lon="-1.514053">
				<ele>605</ele>
				<time>2019-07-08T17:22:40Z</time>
			</trkpt>
			<trkpt lat="42.966177" lon="-1.513947">
				<ele>605</ele>
				<time>2019-07-08T17:23:00Z</time>
			</trkpt>
			<trkpt lat="42.966073" lon="-1.51385">
				<ele>605</ele>
				<time>2019-07-08T17:23:20Z</time>
			</trkpt>
			<trkpt lat="42.965946" lon="-1.513765">
				<ele>605</ele>
				<time>2019-07-08T17:23:40Z</time>
			</trkpt>
			<trkpt lat="42.965809" lon="-1.513589">
				<ele>605</ele>
				<time>2019-07-08T17:24:00Z</time>
			</trkpt>
			<trkpt lat="42.965688" lon="-1.513403">
				<ele>605</ele>
				<time>2019-07-08T17:24:20Z</time>
			</trkpt>
			<trkpt lat="42.965607" lon="-1.513116">
				<ele>605</ele>
				<time>2019-07-08T17:24:40Z</time>
			</trkpt>
			<trkpt lat="42.96555" lon="-1.512829">
				<ele>605</ele>
				<time>2019-07-08T17:25:00Z</time>
			</trkpt>
			<trkpt lat="42.96555" lon="-1.512829">
				<ele>605</ele>
				<time>2019-07-08T17:25:20Z</time>
			</trkpt>
			<trkpt lat="42.965487" lon="-1.512757">
				<ele>605</ele>
				<time>2019-07-08T17:25:40Z</time>
			</trkpt>
			<trkpt lat="42.965332" lon="-1.512612">
				<ele>605</ele>
				<time>2019-07-08T17:26:00Z</time>
			</trkpt>
			<trkpt lat="42.965165" lon="-1.5125">
				<ele>664</ele>
				<time>2019-07-08T17:26:20Z</time>
			</trkpt>
			<trkpt lat="42.965023" lon="-1.512335">
				<ele>664</ele>
				<time>2019-07-08T17:26:40Z</time>
			</trkpt>
			<trkpt lat="42.964855" lon="-1.51222">
				<ele>664</ele>
				<time>2019-07-08T17:27:00Z</time>
			</trkpt>
			<trkpt lat="42.964673" lon="-1.512162">
				<ele>664</ele>
				<time>2019-07-08T17:27:20Z</time>
			</trkpt>
			<trkpt lat="42.964497" lon="-1.512092">
				<ele>614</ele>
				<time>2019-07-08T17:27:40Z</time>
			</trkpt>
			<trkpt lat="42.964303" lon="-1.512095">
				<ele>614</ele>
				<time>2019-07-08T17:28:00Z</time>
			</trkpt>
			<trkpt lat="42.964112" lon="-1.512162">
				<ele>614</ele>
				<time>2019-07-08T17:28:20Z</time>
			</trkpt>
			<trkpt lat="42.964115" lon="-1.51216">
				<ele>614</ele>
				<time>2019-07-08T17:28:40Z</time>
			</trkpt>
			<trkpt lat="42.96389" lon="-1.512358">
				<ele>614</ele>
				<time>2019-07-08T17:29:00Z</time>
			</trkpt>
			<trkpt lat="42.963708" lon="-1.512433">
				<ele>614</ele>
				<time>2019-07-08T17:29:20Z</time>
			</trkpt>
			<trkpt lat="42.963525" lon="-1.51252">
				<ele>576</ele>
				<time>2019-07-08T17:29:40Z</time>
			</trkpt>
			<trkpt lat="42.963343" lon="-1.51254">
				<ele>576</ele>
				<time>2019-07-08T17:30:00Z</time>
			</trkpt>
			<trkpt lat="42.963163" lon="-1.512578">
				<ele>576</ele>
				<time>2019-07-08T17:30:20Z</time>
			</trkpt>
			<trkpt lat="42.96298" lon="-1.51264">
				<ele>576</ele>
				<time>2019-07-08T17:30:40Z</time>
			</trkpt>
			<trkpt lat="42.962832" lon="-1.51279">
				<ele>576</ele>
				<time>2019-07-08T17:31:00Z</time>
			</trkpt>
			<trkpt lat="42.96269" lon="-1.512955">
				<ele>576</ele>
				<time>2019-07-08T17:31:20Z</time>
			</trkpt>
			<trkpt lat="42.962532" lon="-1.513073">
				<ele>576</ele>
				<time>2019-07-08T17:31:40Z</time>
			</trkpt>
			<trkpt lat="42.962358" lon="-1.513142">
				<ele>610</ele>
				<time>2019-07-08T17:32:00Z</time>
			</trkpt>
			<trkpt lat="42.962178" lon="-1.51321">
				<ele>610</ele>
				<time>2019-07-08T17:32:20Z</time>
			</trkpt>
			<trkpt lat="42.962047" lon="-1.513384">
				<ele>610</ele>
				<time>2019-07-08T17:32:40Z</time>
			</trkpt>
			<trkpt lat="42.9619" lon="-1.513628">
				<ele>610</ele>
				<time>2019-07-08T17:33:00Z</time>
			</trkpt>
			<trkpt lat="42.961791" lon="-1.513824">
				<ele>610</ele>
				<time>2019-07-08T17:33:20Z</time>
			</trkpt>
			<trkpt lat="42.961701" lon="-1.513967">
				<ele>610</ele>
				<time>2019-07-08T17:33:40Z</time>
			</trkpt>
			<trkpt lat="42.961603" lon="-1.513992">
				<ele>610</ele>
				<time>2019-07-08T17:34:00Z</time>
			</trkpt>
			<trkpt lat="42.961451" lon="-1.513968">
				<ele>610</ele>
				<time>2019-07-08T17:34:20Z</time>
			</trkpt>
			<trkpt lat="42.96126" lon="-1.513968">
				<ele>610</ele>
				<time>2019-07-08T17:34:40Z</time>
			</trkpt>
			<trkpt lat="42.961131" lon="-1.513917">
				<ele>610</ele>
				<time>2019-07-08T17:35:00Z</time>
			</trkpt>
			<trkpt lat="42.960971" lon="-1.513813">
				<ele>610</ele>
				<time>2019-07-08T17:35:20Z</time>
			</trkpt>
			<trkpt lat="42.960836" lon="-1.513667">
				<ele>610</ele>
				<time>2019-07-08T17:35:40Z</time>
			</trkpt>
			<trkpt lat="42.960736" lon="-1.51342">
				<ele>610</ele>
				<time>2019-07-08T17:36:00Z</time>
			</trkpt>
			<trkpt lat="42.960651" lon="-1.513139">
				<ele>610</ele>
				<time>2019-07-08T17:36:20Z</time>
			</trkpt>
			<trkpt lat="42.960633" lon="-1.512898">
				<ele>610</ele>
				<time>2019-07-08T17:36:40Z</time>
			</trkpt>
			<trkpt lat="42.960689" lon="-1.512624">
				<ele>610</ele>
				<time>2019-07-08T17:37:00Z</time>
			</trkpt>
			<trkpt lat="42.960624" lon="-1.512499">
				<ele>671</ele>
				<time>2019-07-08T17:37:20Z</time>
			</trkpt>
			<trkpt lat="42.960457" lon="-1.512467">
				<ele>671</ele>
				<time>2019-07-08T17:37:40Z</time>
			</trkpt>
			<trkpt lat="42.960292" lon="-1.512573">
				<ele>631</ele>
				<time>2019-07-08T17:38:00Z</time>
			</trkpt>
			<trkpt lat="42.960135" lon="-1.512703">
				<ele>631</ele>
				<time>2019-07-08T17:38:20Z</time>
			</trkpt>
			<trkpt lat="42.960033" lon="-1.512927">
				<ele>631</ele>
				<time>2019-07-08T17:38:40Z</time>
			</trkpt>
			<trkpt lat="42.959952" lon="-1.513153">
				<ele>631</ele>
				<time>2019-07-08T17:39:00Z</time>
			</trkpt>
			<trkpt lat="42.959825" lon="-1.51334">
				<ele>631</ele>
				<time>2019-07-08T17:39:20Z</time>
			</trkpt>
			<trkpt lat="42.959677" lon="-1.513485">
				<ele>631</ele>
				<time>2019-07-08T17:39:40Z</time>
			</trkpt>
			<trkpt lat="42.959485" lon="-1.513492">
				<ele>631</ele>
				<time>2019-07-08T17:40:00Z</time>
			</trkpt>
			<trkpt lat="42.95929" lon="-1.513555">
				<ele>631</ele>
				<time>2019-07-08T17:40:20Z</time>
			</trkpt>
			<trkpt lat="42.959148" lon="-1.513708">
				<ele>631</ele>
				<time>2019-07-08T17:40:40Z</time>
			</trkpt>
			<trkpt lat="42.958968" lon="-1.51378">
				<ele>631</ele>
				<time>2019-07-08T17:41:00Z</time>
			</trkpt>
			<trkpt lat="42.958778" lon="-1.513753">
				<ele>631</ele>
				<time>2019-07-08T17:41:20Z</time>
			</trkpt>
			<trkpt lat="42.958598" lon="-1.513743">
				<ele>631</ele>
				<time>2019-07-08T17:41:40Z</time>
			</trkpt>
			<trkpt lat="42.958417" lon="-1.513722">
				<ele>631</ele>
				<time>2019-07-08T17:42:00Z</time>
			</trkpt>
			<trkpt lat="42.958222" lon="-1.513717">
				<ele>643</ele>
				<time>2019-07-08T17:42:20Z</time>
			</trkpt>
			<trkpt lat="42.958033" lon="-1.51368">
				<ele>643</ele>
				<time>2019-07-08T17:42:40Z</time>
			</trkpt>
			<trkpt lat="42.957847" lon="-1.513638">
				<ele>643</ele>
				<time>2019-07-08T17:43:00Z</time>
			</trkpt>
			<trkpt lat="42.957668" lon="-1.513597">
				<ele>643</ele>
				<time>2019-07-08T17:43:20Z</time>
			</trkpt>
			<trkpt lat="42.957487" lon="-1.513607">
				<ele>643</ele>
				<time>2019-07-08T17:43:40Z</time>
			</trkpt>
			<trkpt lat="42.957318" lon="-1.513695">
				<ele>643</ele>
				<time>2019-07-08T17:44:00Z</time>
			</trkpt>
			<trkpt lat="42.957132" lon="-1.513743">
				<ele>643</ele>
				<time>2019-07-08T17:44:20Z</time>
			</trkpt>
			<trkpt lat="42.956952" lon="-1.513807">
				<ele>643</ele>
				<time>2019-07-08T17:44:40Z</time>
			</trkpt>
			<trkpt lat="42.956773" lon="-1.513843">
				<ele>643</ele>
				<time>2019-07-08T17:45:00Z</time>
			</trkpt>
			<trkpt lat="42.956593" lon="-1.513843">
				<ele>643</ele>
				<time>2019-07-08T17:45:20Z</time>
			</trkpt>
			<trkpt lat="42.956518" lon="-1.513618">
				<ele>643</ele>
				<time>2019-07-08T17:45:40Z</time>
			</trkpt>
			<trkpt lat="42.956507" lon="-1.513372">
				<ele>643</ele>
				<time>2019-07-08T17:46:00Z</time>
			</trkpt>
			<trkpt lat="42.956432" lon="-1.513147">
				<ele>643</ele>
				<time>2019-07-08T17:46:20Z</time>
			</trkpt>
			<trkpt lat="42.956331" lon="-1.513016">
				<ele>643</ele>
				<time>2019-07-08T17:46:40Z</time>
			</trkpt>
			<trkpt lat="42.956237" lon="-1.513025">
				<ele>564</ele>
				<time>2019-07-08T17:47:00Z</time>
			</trkpt>
			<trkpt lat="42.95616" lon="-1.513037">
				<ele>564</ele>
				<time>2019-07-08T17:47:20Z</time>
			</trkpt>
			<trkpt lat="42.956046" lon="-1.513053">
				<ele>564</ele>
				<time>2019-07-08T17:47:40Z</time>
			</trkpt>
			<trkpt lat="42.955975" lon="-1.513096">
				<ele>564</ele>
				<time>2019-07-08T17:48:00Z</time>
			</trkpt>
			<trkpt lat="42.955889" lon="-1.513114">
				<ele>564</ele>
				<time>2019-07-08T17:48:20Z</time>
			</trkpt>
			<trkpt lat="42.95576" lon="-1.513042">
				<ele>564</ele>
				<time>2019-07-08T17:48:40Z</time>
			</trkpt>
			<trkpt lat="42.955641" lon="-1.512878">
				<ele>564</ele>
				<time>2019-07-08T17:49:00Z</time>
			</trkpt>
			<trkpt lat="42.955496" lon="-1.512761">
				<ele>564</ele>
				<time>2019-07-08T17:49:20Z</time>
			</trkpt>
			<trkpt lat="42.955431" lon="-1.512685">
				<ele>564</ele>
				<time>2019-07-08T17:49:40Z</time>
			</trkpt>
			<trkpt lat="42.95532" lon="-1.512588">
				<ele>564</ele>
				<time>2019-07-08T17:50:00Z</time>
			</trkpt>
			<trkpt lat="42.95519" lon="-1.512503">
				<ele>564</ele>
				<time>2019-07-08T17:50:20Z</time>
			</trkpt>
			<trkpt lat="42.955093" lon="-1.512491">
				<ele>584</ele>
				<time>2019-07-08T17:50:40Z</time>
			</trkpt>
			<trkpt lat="42.954984" lon="-1.51247">
				<ele>584</ele>
				<time>2019-07-08T17:51:00Z</time>
			</trkpt>
			<trkpt lat="42.954856" lon="-1.512479">
				<ele>584</ele>
				<time>2019-07-08T17:51:20Z</time>
			</trkpt>
			<trkpt lat="42.954778" lon="-1.512532">
				<ele>564</ele>
				<time>2019-07-08T17:51:40Z</time>
			</trkpt>
			<trkpt lat="42.954656" lon="-1.512544">
				<ele>564</ele>
				<time>2019-07-08T17:52:00Z</time>
			</trkpt>
			<trkpt lat="42.954524" lon="-1.512458">
				<ele>584</ele>
				<time>2019-07-08T17:52:20Z</time>
			</trkpt>
			<trkpt lat="42.954409" lon="-1.512326">
				<ele>584</ele>
				<time>2019-07-08T17:52:40Z</time>
			</trkpt>
			<trkpt lat="42.954311" lon="-1.512125">
				<ele>584</ele>
				<time>2019-07-08T17:53:00Z</time>
			</trkpt>
			<trkpt lat="42.954257" lon="-1.511897">
				<ele>584</ele>
				<time>2019-07-08T17:53:20Z</time>
			</trkpt>
			<trkpt lat="42.954181" lon="-1.511659">
				<ele>584</ele>
				<time>2019-07-08T17:53:40Z</time>
			</trkpt>
			<trkpt lat="42.954123" lon="-1.511433">
				<ele>560</ele>
				<time>2019-07-08T17:54:00Z</time>
			</trkpt>
			<trkpt lat="42.953995" lon="-1.511242">
				<ele>560</ele>
				<time>2019-07-08T17:54:20Z</time>
			</trkpt>
			<trkpt lat="42.95389" lon="-1.511042">
				<ele>560</ele>
				<time>2019-07-08T17:54:40Z</time>
			</trkpt>
			<trkpt lat="42.953737" lon="-1.510912">
				<ele>560</ele>
				<time>2019-07-08T17:55:00Z</time>
			</trkpt>
			<trkpt lat="42.953558" lon="-1.51086">
				<ele>560</ele>
				<time>2019-07-08T17:55:20Z</time>
			</trkpt>
			<trkpt lat="42.953372" lon="-1.510877">
				<ele>560</ele>
				<time>2019-07-08T17:55:40Z</time>
			</trkpt>
			<trkpt lat="42.95319" lon="-1.510863">
				<ele>560</ele>
				<time>2019-07-08T17:56:00Z</time>
			</trkpt>
			<trkpt lat="42.953023" lon="-1.510748">
				<ele>560</ele>
				<time>2019-07-08T17:56:20Z</time>
			</trkpt>
			<trkpt lat="42.952858" lon="-1.510642">
				<ele>560</ele>
				<time>2019-07-08T17:56:40Z</time>
			</trkpt>
			<trkpt lat="42.952767" lon="-1.510422">
				<ele>560</ele>
				<time>2019-07-08T17:57:00Z</time>
			</trkpt>
			<trkpt lat="42.952572" lon="-1.510413">
				<ele>574</ele>
				<time>2019-07-08T17:57:20Z</time>
			</trkpt>
			<trkpt lat="42.95239" lon="-1.510385">
				<ele>574</ele>
				<time>2019-07-08T17:57:40Z</time>
			</trkpt>
			<trkpt lat="42.952243" lon="-1.510213">
				<ele>574</ele>
				<time>2019-07-08T17:58:00Z</time>
			</trkpt>
			<trkpt lat="42.952105" lon="-1.51004">
				<ele>574</ele>
				<time>2019-07-08T17:58:20Z</time>
			</trkpt>
			<trkpt lat="42.951963" lon="-1.50988">
				<ele>580</ele>
				<time>2019-07-08T17:58:40Z</time>
			</trkpt>
			<trkpt lat="42.951798" lon="-1.509765">
				<ele>580</ele>
				<time>2019-07-08T17:59:00Z</time>
			</trkpt>
			<trkpt lat="42.951688" lon="-1.5097">
				<ele>580</ele>
				<time>2019-07-08T17:59:20Z</time>
			</trkpt>
			<trkpt lat="42.951621" lon="-1.509702">
				<ele>580</ele>
				<time>2019-07-08T17:59:40Z</time>
			</trkpt>
			<trkpt lat="42.951583" lon="-1.509742">
				<ele>580</ele>
				<time>2019-07-08T18:00:00Z</time>
			</trkpt>
			<trkpt lat="42.951406" lon="-1.509771">
				<ele>580</ele>
				<time>2019-07-08T18:00:20Z</time>
			</trkpt>
			<trkpt lat="42.951306" lon="-1.509835">
				<ele>580</ele>
				<time>2019-07-08T18:00:40Z</time>
			</trkpt>
			<trkpt lat="42.951208" lon="-1.509891">
				<ele>580</ele>
				<time>2019-07-08T18:01:00Z</time>
			</trkpt>
			<trkpt lat="42.951071" lon="-1.510038">
				<ele>580</ele>
				<time>2019-07-08T18:01:20Z</time>
			</trkpt>
			<trkpt lat="42.950893" lon="-1.510161">
				<ele>580</ele>
				<time>2019-07-08T18:01:40Z</time>
			</trkpt>
			<trkpt lat="42.950745" lon="-1.510273">
				<ele>580</ele>
				<time>2019-07-08T18:02:00Z</time>
			</trkpt>
			<trkpt lat="42.950563" lon="-1.510353">
				<ele>580</ele>
				<time>2019-07-08T18:02:20Z</time>
			</trkpt>
			<trkpt lat="42.950417" lon="-1.510497">
				<ele>590</ele>
				<time>2019-07-08T18:02:40Z</time>
			</trkpt>
			<trkpt lat="42.950225" lon="-1.510527">
				<ele>590</ele>
				<time>2019-07-08T18:03:00Z</time>
			</trkpt>
			<trkpt lat="42.950031" lon="-1.510468">
				<ele>590</ele>
				<time>2019-07-08T18:03:20Z</time>
			</trkpt>
			<trkpt lat="42.949863" lon="-1.51041">
				<ele>579</ele>
				<time>2019-07-08T18:03:40Z</time>
			</trkpt>
			<trkpt lat="42.949692" lon="-1.510298">
				<ele>579</ele>
				<time>2019-07-08T18:04:00Z</time>
			</trkpt>
			<trkpt lat="42.94952" lon="-1.510203">
				<ele>579</ele>
				<time>2019-07-08T18:04:20Z</time>
			</trkpt>
			<trkpt lat="42.949333" lon="-1.510108">
				<ele>579</ele>
				<time>2019-07-08T18:04:40Z</time>
			</trkpt>
			<trkpt lat="42.949172" lon="-1.509998">
				<ele>579</ele>
				<time>2019-07-08T18:05:00Z</time>
			</trkpt>
			<trkpt lat="42.948988" lon="-1.509927">
				<ele>579</ele>
				<time>2019-07-08T18:05:20Z</time>
			</trkpt>
			<trkpt lat="42.948812" lon="-1.509833">
				<ele>579</ele>
				<time>2019-07-08T18:05:40Z</time>
			</trkpt>
			<trkpt lat="42.948635" lon="-1.509773">
				<ele>579</ele>
				<time>2019-07-08T18:06:00Z</time>
			</trkpt>
			<trkpt lat="42.94845" lon="-1.50973">
				<ele>579</ele>
				<time>2019-07-08T18:06:20Z</time>
			</trkpt>
			<trkpt lat="42.948258" lon="-1.50967">
				<ele>579</ele>
				<time>2019-07-08T18:06:40Z</time>
			</trkpt>
			<trkpt lat="42.948118" lon="-1.509685">
				<ele>579</ele>
				<time>2019-07-08T18:07:00Z</time>
			</trkpt>
			<trkpt lat="42.948055" lon="-1.509629">
				<ele>579</ele>
				<time>2019-07-08T18:07:20Z</time>
			</trkpt>
			<trkpt lat="42.948032" lon="-1.50954">
				<ele>579</ele>
				<time>2019-07-08T18:07:40Z</time>
			</trkpt>
			<trkpt lat="42.948077" lon="-1.509367">
				<ele>579</ele>
				<time>2019-07-08T18:08:00Z</time>
			</trkpt>
			<trkpt lat="42.948134" lon="-1.509196">
				<ele>579</ele>
				<time>2019-07-08T18:08:20Z</time>
			</trkpt>
			<trkpt lat="42.948205" lon="-1.508957">
				<ele>579</ele>
				<time>2019-07-08T18:08:40Z</time>
			</trkpt>
			<trkpt lat="42.948242" lon="-1.508745">
				<ele>579</ele>
				<time>2019-07-08T18:09:00Z</time>
			</trkpt>
			<trkpt lat="42.948242" lon="-1.508473">
				<ele>579</ele>
				<time>2019-07-08T18:09:20Z</time>
			</trkpt>
			<trkpt lat="42.948338" lon="-1.508255">
				<ele>577</ele>
				<time>2019-07-08T18:09:40Z</time>
			</trkpt>
			<trkpt lat="42.94847" lon="-1.508062">
				<ele>577</ele>
				<time>2019-07-08T18:10:00Z</time>
			</trkpt>
			<trkpt lat="42.948553" lon="-1.507828">
				<ele>577</ele>
				<time>2019-07-08T18:10:20Z</time>
			</trkpt>
			<trkpt lat="42.948608" lon="-1.507588">
				<ele>577</ele>
				<time>2019-07-08T18:10:40Z</time>
			</trkpt>
			<trkpt lat="42.948697" lon="-1.507358">
				<ele>577</ele>
				<time>2019-07-08T18:11:00Z</time>
			</trkpt>
			<trkpt lat="42.9487" lon="-1.50711">
				<ele>577</ele>
				<time>2019-07-08T18:11:20Z</time>
			</trkpt>
			<trkpt lat="42.948692" lon="-1.506823">
				<ele>577</ele>
				<time>2019-07-08T18:11:40Z</time>
			</trkpt>
			<trkpt lat="42.948705" lon="-1.506558">
				<ele>577</ele>
				<time>2019-07-08T18:12:00Z</time>
			</trkpt>
			<trkpt lat="42.948685" lon="-1.5063">
				<ele>577</ele>
				<time>2019-07-08T18:12:20Z</time>
			</trkpt>
			<trkpt lat="42.948683" lon="-1.506042">
				<ele>581</ele>
				<time>2019-07-08T18:12:40Z</time>
			</trkpt>
			<trkpt lat="42.948695" lon="-1.505793">
				<ele>581</ele>
				<time>2019-07-08T18:13:00Z</time>
			</trkpt>
			<trkpt lat="42.948712" lon="-1.505558">
				<ele>581</ele>
				<time>2019-07-08T18:13:20Z</time>
			</trkpt>
			<trkpt lat="42.948695" lon="-1.505384">
				<ele>581</ele>
				<time>2019-07-08T18:13:40Z</time>
			</trkpt>
			<trkpt lat="42.948681" lon="-1.505145">
				<ele>581</ele>
				<time>2019-07-08T18:14:00Z</time>
			</trkpt>
			<trkpt lat="42.948648" lon="-1.504936">
				<ele>581</ele>
				<time>2019-07-08T18:14:20Z</time>
			</trkpt>
			<trkpt lat="42.94863" lon="-1.504678">
				<ele>581</ele>
				<time>2019-07-08T18:14:40Z</time>
			</trkpt>
			<trkpt lat="42.948627" lon="-1.50443">
				<ele>581</ele>
				<time>2019-07-08T18:15:00Z</time>
			</trkpt>
			<trkpt lat="42.948607" lon="-1.504172">
				<ele>581</ele>
				<time>2019-07-08T18:15:20Z</time>
			</trkpt>
			<trkpt lat="42.948579" lon="-1.503955">
				<ele>593</ele>
				<time>2019-07-08T18:15:40Z</time>
			</trkpt>
			<trkpt lat="42.948534" lon="-1.503721">
				<ele>593</ele>
				<time>2019-07-08T18:16:00Z</time>
			</trkpt>
			<trkpt lat="42.9485" lon="-1.503592">
				<ele>593</ele>
				<time>2019-07-08T18:16:20Z</time>
			</trkpt>
			<trkpt lat="42.94849" lon="-1.503464">
				<ele>593</ele>
				<time>2019-07-08T18:16:40Z</time>
			</trkpt>
			<trkpt lat="42.94844" lon="-1.503375">
				<ele>593</ele>
				<time>2019-07-08T18:17:00Z</time>
			</trkpt>
			<trkpt lat="42.94841" lon="-1.503248">
				<ele>593</ele>
				<time>2019-07-08T18:17:20Z</time>
			</trkpt>
			<trkpt lat="42.94832" lon="-1.502988">
				<ele>593</ele>
				<time>2019-07-08T18:17:40Z</time>
			</trkpt>
			<trkpt lat="42.948267" lon="-1.502737">
				<ele>593</ele>
				<time>2019-07-08T18:18:00Z</time>
			</trkpt>
			<trkpt lat="42.948178" lon="-1.502502">
				<ele>593</ele>
				<time>2019-07-08T18:18:20Z</time>
			</trkpt>
			<trkpt lat="42.948103" lon="-1.502419">
				<ele>593</ele>
				<time>2019-07-08T18:18:40Z</time>
			</trkpt>
			<trkpt lat="42.948063" lon="-1.502299">
				<ele>593</ele>
				<time>2019-07-08T18:19:00Z</time>
			</trkpt>
			<trkpt lat="42.947974" lon="-1.502064">
				<ele>630</ele>
				<time>2019-07-08T18:19:20Z</time>
			</trkpt>
			<trkpt lat="42.947878" lon="-1.501843">
				<ele>556</ele>
				<time>2019-07-08T18:19:40Z</time>
			</trkpt>
			<trkpt lat="42.947752" lon="-1.501665">
				<ele>556</ele>
				<time>2019-07-08T18:20:00Z</time>
			</trkpt>
			<trkpt lat="42.94768" lon="-1.501422">
				<ele>556</ele>
				<time>2019-07-08T18:20:20Z</time>
			</trkpt>
			<trkpt lat="42.947527" lon="-1.501243">
				<ele>556</ele>
				<time>2019-07-08T18:20:40Z</time>
			</trkpt>
			<trkpt lat="42.94735" lon="-1.50116">
				<ele>556</ele>
				<time>2019-07-08T18:21:00Z</time>
			</trkpt>
			<trkpt lat="42.947153" lon="-1.501113">
				<ele>556</ele>
				<time>2019-07-08T18:21:20Z</time>
			</trkpt>
			<trkpt lat="42.946963" lon="-1.50105">
				<ele>556</ele>
				<time>2019-07-08T18:21:40Z</time>
			</trkpt>
			<trkpt lat="42.946777" lon="-1.501034">
				<ele>556</ele>
				<time>2019-07-08T18:22:00Z</time>
			</trkpt>
			<trkpt lat="42.946612" lon="-1.500938">
				<ele>556</ele>
				<time>2019-07-08T18:22:20Z</time>
			</trkpt>
			<trkpt lat="42.946433" lon="-1.50089">
				<ele>556</ele>
				<time>2019-07-08T18:22:40Z</time>
			</trkpt>
			<trkpt lat="42.946254" lon="-1.500914">
				<ele>556</ele>
				<time>2019-07-08T18:23:00Z</time>
			</trkpt>
			<trkpt lat="42.946063" lon="-1.500942">
				<ele>556</ele>
				<time>2019-07-08T18:23:20Z</time>
			</trkpt>
			<trkpt lat="42.945842" lon="-1.500963">
				<ele>556</ele>
				<time>2019-07-08T18:23:40Z</time>
			</trkpt>
			<trkpt lat="42.945734" lon="-1.501052">
				<ele>538</ele>
				<time>2019-07-08T18:24:00Z</time>
			</trkpt>
			<trkpt lat="42.945664" lon="-1.501159">
				<ele>538</ele>
				<time>2019-07-08T18:24:20Z</time>
			</trkpt>
			<trkpt lat="42.945573" lon="-1.50136">
				<ele>538</ele>
				<time>2019-07-08T18:24:40Z</time>
			</trkpt>
			<trkpt lat="42.945581" lon="-1.501522">
				<ele>538</ele>
				<time>2019-07-08T18:25:00Z</time>
			</trkpt>
			<trkpt lat="42.945608" lon="-1.501637">
				<ele>538</ele>
				<time>2019-07-08T18:25:20Z</time>
			</trkpt>
			<trkpt lat="42.945542" lon="-1.501868">
				<ele>538</ele>
				<time>2019-07-08T18:25:40Z</time>
			</trkpt>
			<trkpt lat="42.945401" lon="-1.502055">
				<ele>538</ele>
				<time>2019-07-08T18:26:00Z</time>
			</trkpt>
			<trkpt lat="42.94531" lon="-1.502136">
				<ele>548</ele>
				<time>2019-07-08T18:26:20Z</time>
			</trkpt>
			<trkpt lat="42.945217" lon="-1.502163">
				<ele>548</ele>
				<time>2019-07-08T18:26:40Z</time>
			</trkpt>
			<trkpt lat="42.945028" lon="-1.502174">
				<ele>548</ele>
				<time>2019-07-08T18:27:00Z</time>
			</trkpt>
			<trkpt lat="42.944895" lon="-1.50223">
				<ele>548</ele>
				<time>2019-07-08T18:27:20Z</time>
			</trkpt>
			<trkpt lat="42.944726" lon="-1.5023">
				<ele>548</ele>
				<time>2019-07-08T18:27:40Z</time>
			</trkpt>
			<trkpt lat="42.944566" lon="-1.502356">
				<ele>548</ele>
				<time>2019-07-08T18:28:00Z</time>
			</trkpt>
			<trkpt lat="42.944422" lon="-1.502456">
				<ele>548</ele>
				<time>2019-07-08T18:28:20Z</time>
			</trkpt>
			<trkpt lat="42.944143" lon="-1.502719">
				<ele>548</ele>
				<time>2019-07-08T18:28:40Z</time>
			</trkpt>
			<trkpt lat="42.943983" lon="-1.502848">
				<ele>548</ele>
				<time>2019-07-08T18:29:00Z</time>
			</trkpt>
			<trkpt lat="42.943828" lon="-1.50296">
				<ele>548</ele>
				<time>2019-07-08T18:29:20Z</time>
			</trkpt>
			<trkpt lat="42.943659" lon="-1.503063">
				<ele>537</ele>
				<time>2019-07-08T18:29:40Z</time>
			</trkpt>
			<trkpt lat="42.943574" lon="-1.503112">
				<ele>537</ele>
				<time>2019-07-08T18:30:00Z</time>
			</trkpt>
			<trkpt lat="42.943485" lon="-1.503149">
				<ele>537</ele>
				<time>2019-07-08T18:30:20Z</time>
			</trkpt>
			<trkpt lat="42.943099" lon="-1.503223">
				<ele>537</ele>
				<time>2019-07-08T18:30:40Z</time>
			</trkpt>
			<trkpt lat="42.942712" lon="-1.503273">
				<ele>537</ele>
				<time>2019-07-08T18:31:00Z</time>
			</trkpt>
			<trkpt lat="42.9419" lon="-1.503354">
				<ele>537</ele>
				<time>2019-07-08T18:31:20Z</time>
			</trkpt>
			<trkpt lat="42.941374" lon="-1.503414">
				<ele>535</ele>
				<time>2019-07-08T18:31:40Z</time>
			</trkpt>
			<trkpt lat="42.94091" lon="-1.503431">
				<ele>535</ele>
				<time>2019-07-08T18:32:00Z</time>
			</trkpt>
			<trkpt lat="42.940353" lon="-1.50347">
				<ele>535</ele>
				<time>2019-07-08T18:32:20Z</time>
			</trkpt>
			<trkpt lat="42.93989" lon="-1.503508">
				<ele>535</ele>
				<time>2019-07-08T18:32:40Z</time>
			</trkpt>
			<trkpt lat="42.939438" lon="-1.503551">
				<ele>532</ele>
				<time>2019-07-08T18:33:00Z</time>
			</trkpt>
			<trkpt lat="42.938893" lon="-1.503552">
				<ele>532</ele>
				<time>2019-07-08T18:33:20Z</time>
			</trkpt>
			<trkpt lat="42.938394" lon="-1.503584">
				<ele>532</ele>
				<time>2019-07-08T18:33:40Z</time>
			</trkpt>
			<trkpt lat="42.938141" lon="-1.503574">
				<ele>532</ele>
				<time>2019-07-08T18:34:00Z</time>
			</trkpt>
			<trkpt lat="42.937896" lon="-1.503531">
				<ele>532</ele>
				<time>2019-07-08T18:34:20Z</time>
			</trkpt>
			<trkpt lat="42.937539" lon="-1.5034">
				<ele>532</ele>
				<time>2019-07-08T18:34:40Z</time>
			</trkpt>
			<trkpt lat="42.93712" lon="-1.503269">
				<ele>531</ele>
				<time>2019-07-08T18:35:00Z</time>
			</trkpt>
			<trkpt lat="42.936814" lon="-1.503197">
				<ele>531</ele>
				<time>2019-07-08T18:35:20Z</time>
			</trkpt>
			<trkpt lat="42.936446" lon="-1.503124">
				<ele>531</ele>
				<time>2019-07-08T18:35:40Z</time>
			</trkpt>
			<trkpt lat="42.936392" lon="-1.503268">
				<ele>531</ele>
				<time>2019-07-08T18:36:00Z</time>
			</trkpt>
			<trkpt lat="42.936223" lon="-1.503264">
				<ele>531</ele>
				<time>2019-07-08T18:36:20Z</time>
			</trkpt>
			<trkpt lat="42.936057" lon="-1.503313">
				<ele>531</ele>
				<time>2019-07-08T18:36:40Z</time>
			</trkpt>
			<trkpt lat="42.935583" lon="-1.503421">
				<ele>531</ele>
				<time>2019-07-08T18:37:00Z</time>
			</trkpt>
			<trkpt lat="42.935347" lon="-1.503478">
				<ele>531</ele>
				<time>2019-07-08T18:37:20Z</time>
			</trkpt>
			<trkpt lat="42.935111" lon="-1.50354">
				<ele>531</ele>
				<time>2019-07-08T18:37:40Z</time>
			</trkpt>
			<trkpt lat="42.934436" lon="-1.503708">
				<ele>531</ele>
				<time>2019-07-08T18:38:00Z</time>
			</trkpt>
			<trkpt lat="42.934117" lon="-1.503804">
				<ele>531</ele>
				<time>2019-07-08T18:38:20Z</time>
			</trkpt>
			<trkpt lat="42.933766" lon="-1.503856">
				<ele>531</ele>
				<time>2019-07-08T18:38:40Z</time>
			</trkpt>
			<trkpt lat="42.933093" lon="-1.504012">
				<ele>527</ele>
				<time>2019-07-08T18:39:00Z</time>
			</trkpt>
			<trkpt lat="42.932688" lon="-1.504107">
				<ele>527</ele>
				<time>2019-07-08T18:39:20Z</time>
			</trkpt>
		</trkseg>
	</trk>
</gpx>
